createdAt,value
2023-03-29T00:02:33.676Z,6.70
2023-03-29T00:05:04.917Z,6.70
2023-03-29T00:07:33.534Z,6.70
2023-03-29T00:10:01.425Z,6.70
2023-03-29T00:12:28.903Z,6.70
2023-03-29T00:14:55.676Z,6.70
2023-03-29T00:17:22.660Z,6.70
2023-03-29T00:19:49.492Z,6.70
2023-03-29T00:22:16.785Z,6.70
2023-03-29T00:24:43.465Z,6.70
2023-03-29T00:27:10.245Z,6.70
2023-03-29T00:29:37.114Z,6.80
2023-03-29T00:32:03.946Z,6.80
2023-03-29T00:34:36.032Z,6.70
2023-03-29T00:37:04.110Z,6.70
2023-03-29T00:39:30.861Z,6.80
2023-03-29T00:41:57.550Z,6.70
2023-03-29T00:44:52.156Z,6.70
2023-03-29T00:47:42.631Z,6.80
2023-03-29T00:50:26.291Z,6.80
2023-03-29T00:53:00.894Z,6.80
2023-03-29T00:55:32.481Z,6.70
2023-03-29T00:58:00.969Z,6.80
2023-03-29T01:00:33.443Z,6.80
2023-03-29T01:03:03.817Z,6.80
2023-03-29T01:05:39.276Z,6.80
2023-03-29T01:08:25.648Z,6.80
2023-03-29T01:11:02.172Z,6.80
2023-03-29T01:13:44.719Z,6.80
2023-03-29T01:16:13.821Z,6.80
2023-03-29T01:18:41.944Z,6.80
2023-03-29T01:21:23.587Z,6.90
2023-03-29T01:23:58.358Z,6.80
2023-03-29T01:26:47.566Z,6.80
2023-03-29T01:29:25.821Z,6.80
2023-03-29T01:32:08.981Z,6.80
2023-03-29T01:34:55.520Z,6.80
2023-03-29T01:37:37.851Z,6.80
2023-03-29T01:40:06.291Z,6.80
2023-03-29T01:42:44.265Z,6.80
2023-03-29T01:45:11.578Z,6.90
2023-03-29T01:47:44.341Z,6.90
2023-03-29T01:50:19.689Z,6.90
2023-03-29T01:52:56.691Z,6.90
2023-03-29T01:55:28.511Z,7.00
2023-03-29T01:57:56.544Z,7.00
2023-03-29T02:00:27.903Z,6.90
2023-03-29T02:03:00.369Z,7.00
2023-03-29T02:05:30.650Z,7.00
2023-03-29T02:08:00.164Z,7.00
2023-03-29T02:10:28.213Z,7.00
2023-03-29T02:12:55.406Z,7.00
2023-03-29T02:15:23.496Z,7.00
2023-03-29T02:17:51.379Z,7.00
2023-03-29T02:20:32.175Z,7.00
2023-03-29T02:23:08.923Z,7.00
2023-03-29T02:25:37.821Z,7.00
2023-03-29T02:28:06.785Z,7.10
2023-03-29T02:30:53.544Z,7.20
2023-03-29T02:33:53.284Z,7.10
2023-03-29T02:36:47.148Z,7.20
2023-03-29T02:39:15.861Z,7.20
2023-03-29T02:41:47.088Z,7.20
2023-03-29T02:44:18.660Z,7.20
2023-03-29T02:46:48.903Z,7.20
2023-03-29T02:49:16.131Z,7.20
2023-03-29T02:51:47.333Z,7.20
2023-03-29T02:54:18.483Z,7.20
2023-03-29T02:56:50.365Z,7.30
2023-03-29T02:59:25.769Z,7.30
2023-03-29T03:01:53.626Z,7.30
2023-03-29T03:04:23.306Z,7.20
2023-03-29T03:06:50.202Z,7.30
2023-03-29T03:09:17.473Z,7.30
2023-03-29T03:11:44.317Z,7.20
2023-03-29T03:14:11.602Z,7.20
2023-03-29T03:16:38.731Z,7.20
2023-03-29T03:19:05.854Z,7.20
2023-03-29T03:21:33.585Z,7.20
2023-03-29T03:24:00.304Z,7.20
2023-03-29T03:26:29.935Z,7.20
2023-03-29T03:28:57.360Z,7.20
2023-03-29T03:31:24.715Z,7.20
2023-03-29T03:33:52.857Z,7.20
2023-03-29T03:36:19.546Z,7.20
2023-03-29T03:38:46.267Z,7.20
2023-03-29T03:41:13.639Z,7.20
2023-03-29T03:43:42.932Z,7.20
2023-03-29T03:46:09.848Z,7.20
2023-03-29T03:48:37.228Z,7.20
2023-03-29T03:51:04.765Z,7.20
2023-03-29T03:53:32.269Z,7.20
2023-03-29T03:55:59.143Z,7.20
2023-03-29T03:58:27.170Z,7.20
2023-03-29T04:00:56.138Z,7.20
2023-03-29T04:03:24.106Z,7.20
2023-03-29T04:05:50.955Z,7.20
2023-03-29T04:08:17.736Z,7.20
2023-03-29T04:10:52.956Z,7.20
2023-03-29T04:13:24.660Z,7.20
2023-03-29T04:15:54.244Z,7.20
2023-03-29T04:18:22.145Z,7.20
2023-03-29T04:20:50.008Z,7.20
2023-03-29T04:23:17.133Z,7.20
2023-03-29T04:25:46.837Z,7.20
2023-03-29T04:28:14.064Z,7.30
2023-03-29T04:30:40.984Z,7.30
2023-03-29T04:33:07.871Z,7.20
2023-03-29T04:35:34.989Z,7.30
2023-03-29T04:38:02.004Z,7.30
2023-03-29T04:40:29.180Z,7.30
2023-03-29T04:42:56.276Z,7.40
2023-03-29T04:45:23.191Z,7.40
2023-03-29T04:47:50.078Z,7.40
2023-03-29T04:50:18.236Z,7.40
2023-03-29T04:52:45.566Z,7.40
2023-03-29T04:55:12.882Z,7.50
2023-03-29T04:57:39.730Z,7.40
2023-03-29T05:00:14.993Z,7.50
2023-03-29T05:02:44.249Z,7.50
2023-03-29T05:05:11.927Z,7.50
2023-03-29T05:07:39.383Z,7.50
2023-03-29T05:10:06.938Z,7.50
2023-03-29T05:12:33.688Z,7.50
2023-03-29T05:15:00.419Z,7.50
2023-03-29T05:17:27.510Z,7.50
2023-03-29T05:19:54.798Z,7.50
2023-03-29T05:22:21.821Z,7.60
2023-03-29T05:24:49.121Z,7.60
2023-03-29T05:27:17.046Z,7.50
2023-03-29T05:29:44.811Z,7.50
2023-03-29T05:32:12.007Z,7.50
2023-03-29T05:34:39.154Z,7.60
2023-03-29T05:37:06.082Z,7.60
2023-03-29T05:39:35.729Z,7.60
2023-03-29T05:42:04.540Z,7.60
2023-03-29T05:44:31.528Z,7.60
2023-03-29T05:46:58.481Z,7.70
2023-03-29T05:49:25.534Z,7.70
2023-03-29T05:51:52.315Z,7.70
2023-03-29T05:54:19.341Z,7.80
2023-03-29T05:56:48.950Z,7.80
2023-03-29T05:59:17.567Z,7.80
2023-03-29T06:01:46.964Z,7.80
2023-03-29T06:04:14.680Z,7.90
2023-03-29T06:06:42.122Z,7.90
2023-03-29T06:09:09.547Z,8.00
2023-03-29T06:11:36.331Z,7.90
2023-03-29T06:14:03.508Z,8.00
2023-03-29T06:16:30.752Z,7.80
2023-03-29T06:18:57.538Z,8.00
2023-03-29T06:21:26.576Z,8.00
2023-03-29T06:23:53.350Z,8.10
2023-03-29T06:26:20.207Z,8.00
2023-03-29T06:28:48.687Z,8.10
2023-03-29T06:31:17.582Z,8.10
2023-03-29T06:33:44.360Z,8.10
2023-03-29T06:36:11.915Z,8.20
2023-03-29T06:38:38.663Z,8.20
2023-03-29T06:41:08.573Z,8.30
2023-03-29T06:43:37.906Z,8.30
2023-03-29T06:46:08.791Z,8.30
2023-03-29T06:48:35.852Z,8.40
2023-03-29T06:51:02.805Z,8.40
2023-03-29T06:53:29.738Z,8.40
2023-03-29T06:55:56.463Z,8.40
2023-03-29T06:58:23.342Z,8.50
2023-03-29T07:00:53.140Z,8.50
2023-03-29T07:03:23.658Z,8.60
2023-03-29T07:05:54.426Z,8.60
2023-03-29T07:08:22.516Z,8.60
2023-03-29T07:10:53.238Z,8.70
2023-03-29T07:13:19.993Z,8.80
2023-03-29T07:15:46.970Z,8.80
2023-03-29T07:18:13.793Z,8.90
2023-03-29T07:20:41.695Z,9.00
2023-03-29T07:23:09.563Z,9.10
2023-03-29T07:25:38.334Z,9.20
2023-03-29T07:28:06.158Z,9.40
2023-03-29T07:30:33.346Z,9.50
2023-03-29T07:33:00.612Z,9.60
2023-03-29T07:35:28.264Z,9.70
2023-03-29T07:37:55.950Z,9.80
2023-03-29T07:40:24.351Z,9.90
2023-03-29T07:42:56.724Z,10.00
2023-03-29T07:45:28.569Z,10.10
2023-03-29T07:47:59.835Z,10.20
2023-03-29T07:50:27.646Z,10.20
2023-03-29T07:52:54.739Z,10.60
2023-03-29T07:55:22.163Z,10.40
2023-03-29T07:57:51.788Z,10.80
2023-03-29T08:00:20.021Z,11.00
2023-03-29T08:02:49.823Z,11.00
2023-03-29T08:05:25.951Z,11.10
2023-03-29T08:07:56.424Z,11.50
2023-03-29T08:10:23.388Z,11.70
2023-03-29T08:12:50.922Z,12.40
2023-03-29T08:15:17.854Z,12.10
2023-03-29T08:17:44.870Z,12.10
2023-03-29T08:20:15.601Z,12.00
2023-03-29T08:22:42.590Z,12.20
2023-03-29T08:25:10.001Z,12.20
2023-03-29T08:27:37.712Z,12.10
2023-03-29T08:30:07.996Z,12.00
2023-03-29T08:32:35.512Z,12.20
2023-03-29T08:35:04.408Z,12.10
2023-03-29T08:37:34.661Z,11.90
2023-03-29T08:40:01.586Z,12.00
2023-03-29T08:42:41.031Z,12.10
2023-03-29T08:45:40.328Z,12.20
2023-03-29T08:48:25.967Z,12.30
2023-03-29T08:51:03.505Z,12.40
2023-03-29T08:53:46.871Z,12.60
2023-03-29T08:56:43.368Z,12.60
2023-03-29T08:59:20.663Z,12.60
2023-03-29T09:01:50.025Z,12.70
2023-03-29T09:04:20.884Z,12.70
2023-03-29T09:06:47.654Z,12.70
2023-03-29T09:09:23.478Z,12.50
2023-03-29T09:12:06.808Z,12.50
2023-03-29T09:14:36.393Z,12.40
2023-03-29T09:17:51.218Z,12.40
2023-03-29T09:20:30.508Z,12.50
2023-03-29T09:23:22.330Z,12.40
2023-03-29T09:26:04.676Z,12.40
2023-03-29T09:28:38.336Z,12.50
2023-03-29T09:31:15.398Z,12.90
2023-03-29T09:34:08.967Z,12.80
2023-03-29T09:36:47.638Z,12.70
2023-03-29T09:39:16.420Z,12.80
2023-03-29T09:41:51.083Z,12.80
2023-03-29T09:44:30.777Z,12.90
2023-03-29T09:47:57.069Z,12.90
2023-03-29T09:50:35.233Z,12.90
2023-03-29T09:53:02.135Z,13.10
2023-03-29T09:55:36.429Z,13.30
2023-03-29T09:58:18.799Z,13.40
2023-03-29T10:00:46.559Z,13.50
2023-03-29T10:03:30.156Z,14.40
2023-03-29T10:06:00.219Z,13.90
2023-03-29T10:08:28.064Z,13.70
2023-03-29T10:10:58.158Z,13.90
2023-03-29T10:13:43.591Z,13.80
2023-03-29T10:18:47.334Z,14.20
2023-03-29T10:21:15.826Z,14.40
2023-03-29T10:23:42.983Z,14.60
2023-03-29T10:26:38.933Z,14.70
2023-03-29T10:29:08.481Z,14.90
2023-03-29T10:31:41.573Z,14.80
2023-03-29T10:34:13.772Z,14.90
2023-03-29T10:36:42.233Z,14.90
2023-03-29T10:39:13.380Z,14.90
2023-03-29T10:41:40.505Z,14.90
2023-03-29T10:44:24.168Z,14.70
2023-03-29T10:46:51.179Z,14.80
2023-03-29T10:49:20.065Z,14.90
2023-03-29T10:51:49.504Z,15.10
2023-03-29T10:54:22.098Z,15.10
2023-03-29T10:57:11.590Z,15.30
2023-03-29T10:59:43.454Z,15.30
2023-03-29T11:02:17.260Z,15.50
2023-03-29T11:05:16.439Z,15.40
2023-03-29T11:08:14.911Z,15.30
2023-03-29T11:10:53.248Z,15.30
2023-03-29T11:13:32.127Z,15.30
2023-03-29T11:16:28.663Z,15.30
2023-03-29T11:19:04.315Z,15.20
2023-03-29T11:21:47.149Z,15.10
2023-03-29T11:24:27.814Z,15.30
2023-03-29T11:27:15.986Z,15.40
2023-03-29T11:30:00.904Z,15.40
2023-03-29T11:32:58.035Z,15.40
2023-03-29T11:35:25.114Z,15.40
2023-03-29T11:38:17.419Z,15.40
2023-03-29T11:40:57.141Z,15.60
2023-03-29T11:43:42.903Z,15.80
2023-03-29T11:46:20.540Z,16.00
2023-03-29T11:49:25.848Z,15.90
2023-03-29T11:51:59.638Z,15.90
2023-03-29T11:55:03.911Z,15.60
2023-03-29T11:57:45.977Z,15.60
2023-03-29T12:00:19.640Z,15.60
2023-03-29T12:02:58.357Z,15.80
2023-03-29T12:05:33.242Z,15.80
2023-03-29T12:08:16.450Z,15.70
2023-03-29T12:11:15.733Z,15.70
2023-03-29T12:14:08.773Z,15.80
2023-03-29T12:16:41.740Z,15.90
2023-03-29T12:19:23.436Z,16.00
2023-03-29T12:21:54.194Z,15.90
2023-03-29T12:24:21.261Z,15.70
2023-03-29T12:27:10.276Z,15.40
2023-03-29T12:29:40.120Z,15.20
2023-03-29T12:32:26.601Z,15.10
2023-03-29T12:35:18.575Z,14.90
2023-03-29T12:38:03.913Z,14.80
2023-03-29T12:40:44.180Z,14.80
2023-03-29T12:43:39.387Z,14.70
2023-03-29T12:46:27.077Z,14.90
2023-03-29T12:48:57.452Z,14.80
2023-03-29T12:51:32.269Z,14.80
2023-03-29T12:54:25.032Z,14.70
2023-03-29T12:56:58.571Z,14.70
2023-03-29T12:59:34.740Z,14.60
2023-03-29T13:02:15.237Z,14.70
2023-03-29T13:04:51.343Z,14.60
2023-03-29T13:07:24.229Z,14.70
2023-03-29T13:09:53.821Z,14.70
2023-03-29T13:12:39.143Z,14.80
2023-03-29T13:15:22.064Z,14.90
2023-03-29T13:18:33.963Z,14.90
2023-03-29T13:21:14.606Z,15.00
2023-03-29T13:24:08.870Z,15.00
2023-03-29T13:26:50.361Z,15.00
2023-03-29T13:29:36.421Z,15.10
2023-03-29T13:32:27.195Z,15.20
2023-03-29T13:35:16.050Z,15.20
2023-03-29T13:38:06.912Z,15.10
2023-03-29T13:40:45.335Z,15.10
2023-03-29T13:43:20.822Z,14.90
2023-03-29T13:45:59.539Z,14.80
2023-03-29T13:48:30.169Z,14.60
2023-03-29T13:51:07.928Z,14.60
2023-03-29T13:53:44.135Z,14.60
2023-03-29T13:56:18.817Z,14.60
2023-03-29T13:58:49.686Z,14.70
2023-03-29T14:01:28.236Z,14.70
2023-03-29T14:03:56.755Z,14.70
2023-03-29T14:06:31.312Z,14.60
2023-03-29T14:09:04.281Z,14.70
2023-03-29T14:11:31.487Z,14.70
2023-03-29T14:14:00.834Z,14.80
2023-03-29T14:16:31.638Z,14.80
2023-03-29T14:19:21.601Z,14.90
2023-03-29T14:21:51.254Z,14.90
2023-03-29T14:24:22.303Z,15.00
2023-03-29T14:26:49.149Z,15.10
2023-03-29T14:29:16.241Z,15.10
2023-03-29T14:31:43.374Z,15.10
2023-03-29T14:34:15.847Z,15.10
2023-03-29T14:36:45.649Z,15.10
2023-03-29T14:39:17.284Z,15.10
2023-03-29T14:41:52.900Z,15.00
2023-03-29T14:44:29.791Z,15.00
2023-03-29T14:46:57.221Z,14.90
2023-03-29T14:49:24.605Z,14.90
2023-03-29T14:51:52.341Z,14.90
2023-03-29T14:54:32.786Z,14.90
2023-03-29T14:57:03.477Z,14.80
2023-03-29T14:59:38.648Z,14.90
2023-03-29T15:02:34.046Z,15.00
2023-03-29T15:05:07.521Z,15.00
2023-03-29T15:07:36.457Z,15.00
2023-03-29T15:10:08.281Z,15.00
2023-03-29T15:12:37.887Z,15.00
2023-03-29T15:15:07.663Z,15.00
2023-03-29T15:17:51.205Z,15.00
2023-03-29T15:20:26.041Z,15.00
2023-03-29T15:23:04.109Z,15.00
2023-03-29T15:25:45.934Z,15.10
2023-03-29T15:29:02.931Z,15.20
2023-03-29T15:31:34.852Z,15.20
2023-03-29T15:34:09.515Z,15.30
2023-03-29T15:36:46.342Z,15.30
2023-03-29T15:39:15.478Z,15.30
2023-03-29T15:41:43.440Z,15.30
2023-03-29T15:44:11.238Z,15.30
2023-03-29T15:46:38.230Z,15.30
2023-03-29T15:49:05.057Z,14.50
2023-03-29T15:51:32.049Z,15.20
2023-03-29T15:53:58.775Z,15.30
2023-03-29T15:56:27.060Z,15.30
2023-03-29T15:58:53.789Z,15.20
2023-03-29T16:01:47.950Z,15.20
2023-03-29T16:04:17.519Z,15.20
2023-03-29T16:06:46.810Z,15.20
2023-03-29T16:09:13.580Z,15.20
2023-03-29T16:11:41.510Z,15.20
2023-03-29T16:14:30.824Z,15.20
2023-03-29T16:16:59.487Z,15.20
2023-03-29T16:19:27.346Z,15.20
2023-03-29T16:21:54.720Z,15.20
2023-03-29T16:24:24.180Z,15.20
2023-03-29T16:26:54.629Z,15.10
2023-03-29T16:29:24.753Z,15.10
2023-03-29T16:31:52.783Z,14.90
2023-03-29T16:34:20.964Z,15.10
2023-03-29T16:36:49.110Z,15.00
2023-03-29T16:39:16.528Z,15.10
2023-03-29T16:41:47.281Z,15.00
2023-03-29T16:44:20.941Z,15.00
2023-03-29T16:46:49.784Z,15.00
2023-03-29T16:49:19.230Z,14.90
2023-03-29T16:51:49.132Z,14.90
2023-03-29T16:54:17.317Z,15.00
2023-03-29T16:56:44.174Z,15.00
2023-03-29T16:59:12.120Z,15.00
2023-03-29T17:01:40.738Z,14.90
2023-03-29T17:04:08.141Z,14.90
2023-03-29T17:06:35.192Z,14.90
2023-03-29T17:09:01.875Z,14.90
2023-03-29T17:11:29.073Z,14.80
2023-03-29T17:13:56.142Z,14.90
2023-03-29T17:16:23.308Z,14.80
2023-03-29T17:18:50.149Z,14.80
2023-03-29T17:21:17.143Z,14.90
2023-03-29T17:23:43.901Z,14.80
2023-03-29T17:26:11.959Z,14.80
2023-03-29T17:28:39.149Z,14.80
2023-03-29T17:31:08.054Z,14.90
2023-03-29T17:33:36.205Z,14.80
2023-03-29T17:36:04.391Z,14.80
2023-03-29T17:38:34.216Z,14.80
2023-03-29T17:41:02.852Z,14.80
2023-03-29T17:43:29.763Z,14.80
2023-03-29T17:45:56.784Z,14.70
2023-03-29T17:48:24.552Z,14.70
2023-03-29T17:50:51.707Z,14.80
2023-03-29T17:53:18.587Z,14.70
2023-03-29T17:55:45.874Z,14.60
2023-03-29T17:58:12.802Z,14.60
2023-03-29T18:00:39.801Z,14.60
2023-03-29T18:03:07.137Z,14.60
2023-03-29T18:05:35.642Z,14.50
2023-03-29T18:08:02.688Z,14.50
2023-03-29T18:10:29.627Z,14.50
2023-03-29T18:12:56.530Z,14.50
2023-03-29T18:15:23.412Z,14.50
2023-03-29T18:17:50.365Z,14.50
2023-03-29T18:20:17.414Z,14.50
2023-03-29T18:22:44.308Z,14.40
2023-03-29T18:25:11.293Z,14.40
2023-03-29T18:27:39.475Z,14.50
2023-03-29T18:30:08.708Z,14.40
2023-03-29T18:32:36.428Z,14.40
2023-03-29T18:35:03.969Z,14.40
2023-03-29T18:37:31.066Z,14.40
2023-03-29T18:39:57.772Z,14.40
2023-03-29T18:42:24.693Z,14.40
2023-03-29T18:44:54.088Z,14.30
2023-03-29T18:47:21.025Z,14.30
2023-03-29T18:49:48.009Z,14.30
2023-03-29T18:52:14.914Z,14.30
2023-03-29T18:54:44.282Z,14.20
2023-03-29T18:57:14.374Z,14.20
2023-03-29T18:59:43.801Z,14.10
2023-03-29T19:02:10.733Z,14.10
2023-03-29T19:04:37.456Z,14.10
2023-03-29T19:07:04.222Z,14.00
2023-03-29T19:09:31.646Z,13.90
2023-03-29T19:11:58.354Z,13.90
2023-03-29T19:14:25.349Z,13.80
2023-03-29T19:16:52.565Z,13.80
2023-03-29T19:19:21.340Z,13.70
2023-03-29T19:21:48.109Z,13.70
2023-03-29T19:24:15.866Z,13.70
2023-03-29T19:26:44.366Z,13.60
2023-03-29T19:29:11.630Z,13.60
2023-03-29T19:31:38.769Z,13.60
2023-03-29T19:34:06.961Z,13.50
2023-03-29T19:36:34.009Z,13.50
2023-03-29T19:39:01.405Z,13.50
2023-03-29T19:41:28.388Z,13.40
2023-03-29T19:43:55.138Z,13.40
2023-03-29T19:46:22.426Z,13.40
2023-03-29T19:48:49.592Z,13.30
2023-03-29T19:51:16.736Z,13.30
2023-03-29T19:53:43.611Z,13.30
2023-03-29T19:56:11.107Z,13.20
2023-03-29T19:58:38.022Z,13.20
2023-03-29T20:01:05.005Z,13.20
2023-03-29T20:03:34.308Z,13.20
2023-03-29T20:06:01.902Z,13.10
2023-03-29T20:08:28.718Z,13.10
2023-03-29T20:10:59.744Z,13.10
2023-03-29T20:13:37.580Z,13.10
2023-03-29T20:16:07.401Z,13.00
2023-03-29T20:18:38.300Z,13.00
2023-03-29T20:21:07.398Z,13.00
2023-03-29T20:23:34.985Z,13.00
2023-03-29T20:26:04.912Z,12.90
2023-03-29T20:28:31.642Z,12.90
2023-03-29T20:31:03.485Z,12.90
2023-03-29T20:33:31.729Z,12.90
2023-03-29T20:35:59.235Z,12.80
2023-03-29T20:38:26.244Z,12.80
2023-03-29T20:40:53.563Z,12.80
2023-03-29T20:43:20.268Z,12.70
2023-03-29T20:45:53.928Z,12.60
2023-03-29T20:48:30.139Z,12.60
2023-03-29T20:50:57.741Z,12.50
2023-03-29T20:53:25.144Z,12.50
2023-03-29T20:55:51.868Z,12.50
2023-03-29T20:58:18.636Z,12.50
2023-03-29T21:00:46.759Z,12.50
2023-03-29T21:03:13.735Z,12.50
2023-03-29T21:05:40.853Z,12.50
2023-03-29T21:08:10.825Z,12.40
2023-03-29T21:10:37.657Z,12.50
2023-03-29T21:13:04.524Z,12.50
2023-03-29T21:15:31.882Z,12.50
2023-03-29T21:17:59.119Z,12.50
2023-03-29T21:20:27.626Z,12.50
2023-03-29T21:22:54.374Z,12.50
2023-03-29T21:25:21.654Z,12.50
2023-03-29T21:27:49.055Z,12.60
2023-03-29T21:30:16.057Z,12.50
2023-03-29T21:32:42.883Z,12.50
2023-03-29T21:35:10.552Z,12.50
2023-03-29T21:37:37.621Z,12.60
2023-03-29T21:40:05.980Z,12.60
2023-03-29T21:42:41.257Z,12.60
2023-03-29T21:45:08.967Z,12.70
2023-03-29T21:47:36.171Z,12.70
2023-03-29T21:50:03.053Z,12.70
2023-03-29T21:52:29.877Z,12.80
2023-03-29T21:54:56.627Z,12.80
2023-03-29T21:57:23.318Z,12.80
2023-03-29T21:59:50.282Z,12.80
2023-03-29T22:02:17.100Z,12.80
2023-03-29T22:04:43.966Z,12.80
2023-03-29T22:07:10.759Z,12.80
2023-03-29T22:09:37.757Z,12.80
2023-03-29T22:12:04.999Z,12.70
2023-03-29T22:14:35.106Z,12.70
2023-03-29T22:17:05.739Z,12.70
2023-03-29T22:19:34.528Z,12.60
2023-03-29T22:22:01.666Z,12.60
2023-03-29T22:24:29.241Z,12.50
2023-03-29T22:26:56.430Z,12.60
2023-03-29T22:29:23.261Z,12.60
2023-03-29T22:31:50.341Z,12.50
2023-03-29T22:34:17.250Z,12.50
2023-03-29T22:36:45.087Z,12.50
2023-03-29T22:39:12.075Z,12.50
2023-03-29T22:41:39.116Z,12.50
2023-03-29T22:44:05.923Z,12.50
2023-03-29T22:46:32.940Z,12.60
2023-03-29T22:48:59.854Z,12.60
2023-03-29T22:51:27.283Z,12.60
2023-03-29T22:53:54.625Z,12.70
2023-03-29T22:56:21.980Z,12.60
2023-03-29T22:58:49.063Z,12.60
2023-03-29T23:01:16.208Z,12.60
2023-03-29T23:03:43.128Z,12.70
2023-03-29T23:06:10.125Z,12.70
2023-03-29T23:08:36.835Z,12.70
2023-03-29T23:11:04.499Z,12.70
2023-03-29T23:13:33.380Z,12.70
2023-03-29T23:16:01.716Z,12.70
2023-03-29T23:18:30.551Z,12.70
2023-03-29T23:20:58.879Z,12.70
2023-03-29T23:23:26.936Z,12.70
2023-03-29T23:25:55.427Z,12.80
2023-03-29T23:28:27.114Z,12.70
2023-03-29T23:31:03.222Z,12.80
2023-03-29T23:33:33.538Z,12.80
2023-03-29T23:36:04.814Z,12.90
2023-03-29T23:38:34.241Z,13.00
2023-03-29T23:41:03.784Z,13.10
2023-03-29T23:43:33.385Z,13.20
2023-03-29T23:46:04.124Z,13.30
2023-03-29T23:48:31.585Z,13.40
2023-03-29T23:50:58.611Z,13.60
2023-03-29T23:53:28.525Z,13.60
2023-03-29T23:56:00.434Z,13.70
2023-03-29T23:58:35.038Z,13.70
